sensor_id;sensor_type;location;lat;lon;timestamp;temperature;humidity
45096;DHT22;30858;51.108;8.068;2023-02-11T00:01:30;3.60;99.90
45096;DHT22;30858;51.108;8.068;2023-02-11T00:03:55;3.60;99.90
45096;DHT22;30858;51.108;8.068;2023-02-11T00:06:22;3.60;99.90
45096;DHT22;30858;51.108;8.068;2023-02-11T00:08:47;3.70;99.90
45096;DHT22;30858;51.108;8.068;2023-02-11T00:11:15;3.70;99.90
45096;DHT22;30858;51.108;8.068;2023-02-11T00:13:42;3.80;99.90
45096;DHT22;30858;51.108;8.068;2023-02-11T00:16:10;3.70;99.90
45096;DHT22;30858;51.108;8.068;2023-02-11T00:18:37;3.70;99.90
45096;DHT22;30858;51.108;8.068;2023-02-11T00:21:07;3.70;99.90
45096;DHT22;30858;51.108;8.068;2023-02-11T00:23:33;3.70;99.90
45096;DHT22;30858;51.108;8.068;2023-02-11T00:25:58;4.00;99.90
45096;DHT22;30858;51.108;8.068;2023-02-11T00:28:24;4.00;99.90
45096;DHT22;30858;51.108;8.068;2023-02-11T00:30:54;3.90;99.90
45096;DHT22;30858;51.108;8.068;2023-02-11T00:33:20;3.90;99.90
45096;DHT22;30858;51.108;8.068;2023-02-11T00:35:45;4.10;99.90
45096;DHT22;30858;51.108;8.068;2023-02-11T00:38:11;4.10;99.90
45096;DHT22;30858;51.108;8.068;2023-02-11T00:40:36;4.00;99.90
45096;DHT22;30858;51.108;8.068;2023-02-11T00:43:02;4.00;99.90
45096;DHT22;30858;51.108;8.068;2023-02-11T00:45:27;4.20;99.90
45096;DHT22;30858;51.108;8.068;2023-02-11T00:47:55;4.20;99.90
45096;DHT22;30858;51.108;8.068;2023-02-11T00:50:21;4.20;99.90
45096;DHT22;30858;51.108;8.068;2023-02-11T00:52:46;4.30;99.90
45096;DHT22;30858;51.108;8.068;2023-02-11T00:55:12;4.20;99.90
45096;DHT22;30858;51.108;8.068;2023-02-11T00:57:37;4.20;99.90
45096;DHT22;30858;51.108;8.068;2023-02-11T01:00:06;4.20;99.90
45096;DHT22;30858;51.108;8.068;2023-02-11T01:02:32;4.40;99.90
45096;DHT22;30858;51.108;8.068;2023-02-11T01:04:58;4.30;99.90
45096;DHT22;30858;51.108;8.068;2023-02-11T01:07:24;4.40;99.90
45096;DHT22;30858;51.108;8.068;2023-02-11T01:09:50;4.40;99.90
45096;DHT22;30858;51.108;8.068;2023-02-11T01:12:16;4.40;99.90
45096;DHT22;30858;51.108;8.068;2023-02-11T01:14:41;4.40;99.90
45096;DHT22;30858;51.108;8.068;2023-02-11T01:17:07;4.50;99.90
45096;DHT22;30858;51.108;8.068;2023-02-11T01:19:33;4.50;99.90
45096;DHT22;30858;51.108;8.068;2023-02-11T01:21:58;4.50;99.90
45096;DHT22;30858;51.108;8.068;2023-02-11T01:24:24;4.50;99.90
45096;DHT22;30858;51.108;8.068;2023-02-11T01:26:50;4.50;99.90
45096;DHT22;30858;51.108;8.068;2023-02-11T01:29:15;4.50;99.90
45096;DHT22;30858;51.108;8.068;2023-02-11T01:31:41;4.60;99.90
45096;DHT22;30858;51.108;8.068;2023-02-11T01:34:06;4.70;99.90
45096;DHT22;30858;51.108;8.068;2023-02-11T01:36:32;4.70;99.90
45096;DHT22;30858;51.108;8.068;2023-02-11T01:38:57;4.70;99.90
45096;DHT22;30858;51.108;8.068;2023-02-11T01:41:23;4.70;99.90
45096;DHT22;30858;51.108;8.068;2023-02-11T01:43:49;4.70;99.90
45096;DHT22;30858;51.108;8.068;2023-02-11T01:46:33;4.70;99.90
45096;DHT22;30858;51.108;8.068;2023-02-11T01:49:15;4.70;99.90
45096;DHT22;30858;51.108;8.068;2023-02-11T01:51:45;4.70;99.90
45096;DHT22;30858;51.108;8.068;2023-02-11T01:54:15;4.70;99.90
45096;DHT22;30858;51.108;8.068;2023-02-11T01:57:00;4.80;99.90
45096;DHT22;30858;51.108;8.068;2023-02-11T01:59:46;4.70;99.90
45096;DHT22;30858;51.108;8.068;2023-02-11T02:02:16;4.80;99.90
45096;DHT22;30858;51.108;8.068;2023-02-11T02:04:51;4.90;99.90
45096;DHT22;30858;51.108;8.068;2023-02-11T02:07:27;4.90;99.90
45096;DHT22;30858;51.108;8.068;2023-02-11T02:10:00;4.80;99.90
45096;DHT22;30858;51.108;8.068;2023-02-11T02:12:27;4.80;99.90
45096;DHT22;30858;51.108;8.068;2023-02-11T02:17:49;4.80;99.90
45096;DHT22;30858;51.108;8.068;2023-02-11T02:29:10;4.70;99.90
45096;DHT22;30858;51.108;8.068;2023-02-11T02:34:34;4.70;99.90
45096;DHT22;30858;51.108;8.068;2023-02-11T02:37:11;4.70;99.90
45096;DHT22;30858;51.108;8.068;2023-02-11T02:39:39;4.80;99.90
45096;DHT22;30858;51.108;8.068;2023-02-11T02:42:05;4.80;99.90
45096;DHT22;30858;51.108;8.068;2023-02-11T02:44:31;4.80;99.90
45096;DHT22;30858;51.108;8.068;2023-02-11T02:46:57;4.80;99.90
45096;DHT22;30858;51.108;8.068;2023-02-11T02:49:23;4.80;99.90
45096;DHT22;30858;51.108;8.068;2023-02-11T03:03:28;4.80;99.90
45096;DHT22;30858;51.108;8.068;2023-02-11T03:06:04;4.80;99.90
45096;DHT22;30858;51.108;8.068;2023-02-11T03:11:02;4.90;99.90
45096;DHT22;30858;51.108;8.068;2023-02-11T03:13:33;4.80;99.90
45096;DHT22;30858;51.108;8.068;2023-02-11T03:16:08;4.70;99.90
45096;DHT22;30858;51.108;8.068;2023-02-11T03:18:38;4.70;99.90
45096;DHT22;30858;51.108;8.068;2023-02-11T03:21:07;4.70;99.90
45096;DHT22;30858;51.108;8.068;2023-02-11T03:26:29;4.70;99.90
45096;DHT22;30858;51.108;8.068;2023-02-11T03:31:27;4.70;99.90
45096;DHT22;30858;51.108;8.068;2023-02-11T03:34:13;4.80;99.90
45096;DHT22;30858;51.108;8.068;2023-02-11T03:36:52;4.80;99.90
45096;DHT22;30858;51.108;8.068;2023-02-11T03:39:25;4.80;99.90
45096;DHT22;30858;51.108;8.068;2023-02-11T03:41:53;4.80;99.90
45096;DHT22;30858;51.108;8.068;2023-02-11T03:44:21;4.90;99.90
45096;DHT22;30858;51.108;8.068;2023-02-11T03:46:50;4.90;99.90
45096;DHT22;30858;51.108;8.068;2023-02-11T03:49:19;4.80;99.90
45096;DHT22;30858;51.108;8.068;2023-02-11T03:51:47;4.80;99.90
45096;DHT22;30858;51.108;8.068;2023-02-11T03:54:17;4.80;99.90
45096;DHT22;30858;51.108;8.068;2023-02-11T03:56:50;4.80;99.90
45096;DHT22;30858;51.108;8.068;2023-02-11T03:59:16;4.80;99.90
45096;DHT22;30858;51.108;8.068;2023-02-11T04:01:42;4.80;99.90
45096;DHT22;30858;51.108;8.068;2023-02-11T04:04:07;4.80;99.90
45096;DHT22;30858;51.108;8.068;2023-02-11T04:06:33;4.80;99.90
45096;DHT22;30858;51.108;8.068;2023-02-11T04:08:58;4.80;99.90
45096;DHT22;30858;51.108;8.068;2023-02-11T04:11:24;4.80;99.90
45096;DHT22;30858;51.108;8.068;2023-02-11T04:13:49;4.80;99.90
45096;DHT22;30858;51.108;8.068;2023-02-11T04:16:15;4.90;99.90
45096;DHT22;30858;51.108;8.068;2023-02-11T04:18:40;4.80;99.90
45096;DHT22;30858;51.108;8.068;2023-02-11T04:21:06;4.70;99.90
45096;DHT22;30858;51.108;8.068;2023-02-11T04:23:32;4.80;99.90
45096;DHT22;30858;51.108;8.068;2023-02-11T04:25:57;4.80;99.90
45096;DHT22;30858;51.108;8.068;2023-02-11T04:28:23;4.80;99.90
45096;DHT22;30858;51.108;8.068;2023-02-11T04:30:49;4.70;99.90
45096;DHT22;30858;51.108;8.068;2023-02-11T04:33:15;4.70;99.90
45096;DHT22;30858;51.108;8.068;2023-02-11T04:35:41;4.60;99.90
45096;DHT22;30858;51.108;8.068;2023-02-11T04:38:06;4.70;99.90
45096;DHT22;30858;51.108;8.068;2023-02-11T04:40:32;4.60;99.90
45096;DHT22;30858;51.108;8.068;2023-02-11T04:42:58;4.60;99.90
45096;DHT22;30858;51.108;8.068;2023-02-11T04:45:23;4.70;99.90
45096;DHT22;30858;51.108;8.068;2023-02-11T04:47:49;4.60;99.90
45096;DHT22;30858;51.108;8.068;2023-02-11T04:50:14;4.60;99.90
45096;DHT22;30858;51.108;8.068;2023-02-11T04:52:40;4.60;99.90
45096;DHT22;30858;51.108;8.068;2023-02-11T04:55:05;4.60;99.90
45096;DHT22;30858;51.108;8.068;2023-02-11T04:57:31;4.60;99.90
45096;DHT22;30858;51.108;8.068;2023-02-11T04:59:57;4.60;99.90
45096;DHT22;30858;51.108;8.068;2023-02-11T05:02:22;4.60;99.90
45096;DHT22;30858;51.108;8.068;2023-02-11T05:04:48;4.60;99.90
45096;DHT22;30858;51.108;8.068;2023-02-11T05:07:13;4.50;99.90
45096;DHT22;30858;51.108;8.068;2023-02-11T05:09:39;4.50;99.90
45096;DHT22;30858;51.108;8.068;2023-02-11T05:12:04;4.50;99.90
45096;DHT22;30858;51.108;8.068;2023-02-11T05:14:30;4.50;99.90
45096;DHT22;30858;51.108;8.068;2023-02-11T05:16:56;4.50;99.90
45096;DHT22;30858;51.108;8.068;2023-02-11T05:19:22;4.50;99.90
45096;DHT22;30858;51.108;8.068;2023-02-11T05:21:47;4.50;99.90
45096;DHT22;30858;51.108;8.068;2023-02-11T05:24:13;4.60;99.90
45096;DHT22;30858;51.108;8.068;2023-02-11T05:26:38;4.60;99.90
45096;DHT22;30858;51.108;8.068;2023-02-11T05:29:04;4.60;99.90
45096;DHT22;30858;51.108;8.068;2023-02-11T05:31:29;4.50;99.90
45096;DHT22;30858;51.108;8.068;2023-02-11T05:33:55;4.60;99.90
45096;DHT22;30858;51.108;8.068;2023-02-11T05:36:20;4.60;99.90
45096;DHT22;30858;51.108;8.068;2023-02-11T05:38:46;4.60;99.90
45096;DHT22;30858;51.108;8.068;2023-02-11T05:41:12;4.60;99.90
45096;DHT22;30858;51.108;8.068;2023-02-11T05:43:37;4.70;99.90
45096;DHT22;30858;51.108;8.068;2023-02-11T05:46:04;4.60;99.90
45096;DHT22;30858;51.108;8.068;2023-02-11T05:48:30;4.60;99.90
45096;DHT22;30858;51.108;8.068;2023-02-11T05:50:56;4.60;99.90
45096;DHT22;30858;51.108;8.068;2023-02-11T05:53:21;4.60;99.90
45096;DHT22;30858;51.108;8.068;2023-02-11T05:55:47;4.60;99.90
45096;DHT22;30858;51.108;8.068;2023-02-11T05:58:13;4.50;99.90
45096;DHT22;30858;51.108;8.068;2023-02-11T06:00:38;4.50;99.90
45096;DHT22;30858;51.108;8.068;2023-02-11T06:03:04;4.50;99.90
45096;DHT22;30858;51.108;8.068;2023-02-11T06:05:30;4.60;99.90
45096;DHT22;30858;51.108;8.068;2023-02-11T06:07:56;4.60;99.90
45096;DHT22;30858;51.108;8.068;2023-02-11T06:10:21;4.60;99.90
45096;DHT22;30858;51.108;8.068;2023-02-11T06:12:47;4.70;99.90
45096;DHT22;30858;51.108;8.068;2023-02-11T06:15:13;4.70;99.90
45096;DHT22;30858;51.108;8.068;2023-02-11T06:17:38;4.60;99.90
45096;DHT22;30858;51.108;8.068;2023-02-11T06:20:06;4.40;99.90
45096;DHT22;30858;51.108;8.068;2023-02-11T06:22:32;4.40;99.90
45096;DHT22;30858;51.108;8.068;2023-02-11T06:24:58;4.50;99.90
45096;DHT22;30858;51.108;8.068;2023-02-11T06:27:24;4.40;99.90
45096;DHT22;30858;51.108;8.068;2023-02-11T06:29:50;4.40;99.90
45096;DHT22;30858;51.108;8.068;2023-02-11T06:32:17;4.40;99.90
45096;DHT22;30858;51.108;8.068;2023-02-11T06:34:42;4.30;99.90
45096;DHT22;30858;51.108;8.068;2023-02-11T06:37:08;4.40;99.90
45096;DHT22;30858;51.108;8.068;2023-02-11T06:39:33;4.40;99.90
45096;DHT22;30858;51.108;8.068;2023-02-11T06:41:59;4.40;99.90
45096;DHT22;30858;51.108;8.068;2023-02-11T06:44:24;4.50;99.90
45096;DHT22;30858;51.108;8.068;2023-02-11T06:46:50;4.60;99.90
45096;DHT22;30858;51.108;8.068;2023-02-11T06:49:16;4.60;99.90
45096;DHT22;30858;51.108;8.068;2023-02-11T06:51:41;4.60;99.90
45096;DHT22;30858;51.108;8.068;2023-02-11T06:54:07;4.50;99.90
45096;DHT22;30858;51.108;8.068;2023-02-11T06:56:33;4.50;99.90
45096;DHT22;30858;51.108;8.068;2023-02-11T06:58:59;4.50;99.90
45096;DHT22;30858;51.108;8.068;2023-02-11T07:01:26;4.50;99.90
45096;DHT22;30858;51.108;8.068;2023-02-11T07:03:52;4.40;99.90
45096;DHT22;30858;51.108;8.068;2023-02-11T07:06:20;4.40;99.90
45096;DHT22;30858;51.108;8.068;2023-02-11T07:08:47;4.50;99.90
45096;DHT22;30858;51.108;8.068;2023-02-11T07:11:18;4.50;99.90
45096;DHT22;30858;51.108;8.068;2023-02-11T07:13:44;4.40;99.90
45096;DHT22;30858;51.108;8.068;2023-02-11T07:16:12;4.30;99.90
45096;DHT22;30858;51.108;8.068;2023-02-11T07:18:39;4.30;99.90
45096;DHT22;30858;51.108;8.068;2023-02-11T07:21:06;4.40;99.90
45096;DHT22;30858;51.108;8.068;2023-02-11T07:23:33;4.40;99.90
45096;DHT22;30858;51.108;8.068;2023-02-11T07:26:11;4.50;99.90
45096;DHT22;30858;51.108;8.068;2023-02-11T07:28:38;4.40;99.90
45096;DHT22;30858;51.108;8.068;2023-02-11T07:31:18;4.30;99.90
45096;DHT22;30858;51.108;8.068;2023-02-11T07:33:44;4.30;99.90
45096;DHT22;30858;51.108;8.068;2023-02-11T07:36:11;4.40;99.90
45096;DHT22;30858;51.108;8.068;2023-02-11T07:38:37;4.30;99.90
45096;DHT22;30858;51.108;8.068;2023-02-11T07:41:05;4.30;99.90
45096;DHT22;30858;51.108;8.068;2023-02-11T07:43:32;4.30;99.90
45096;DHT22;30858;51.108;8.068;2023-02-11T07:45:58;4.30;99.90
45096;DHT22;30858;51.108;8.068;2023-02-11T07:48:24;4.30;99.90
45096;DHT22;30858;51.108;8.068;2023-02-11T07:50:49;4.30;99.90
45096;DHT22;30858;51.108;8.068;2023-02-11T07:53:15;4.30;99.90
45096;DHT22;30858;51.108;8.068;2023-02-11T07:55:42;4.40;99.90
45096;DHT22;30858;51.108;8.068;2023-02-11T07:58:08;4.40;99.90
45096;DHT22;30858;51.108;8.068;2023-02-11T08:00:33;4.30;99.90
45096;DHT22;30858;51.108;8.068;2023-02-11T08:02:59;4.30;99.90
45096;DHT22;30858;51.108;8.068;2023-02-11T08:05:24;4.30;99.90
45096;DHT22;30858;51.108;8.068;2023-02-11T08:07:52;4.40;99.90
45096;DHT22;30858;51.108;8.068;2023-02-11T08:10:18;4.40;99.90
45096;DHT22;30858;51.108;8.068;2023-02-11T08:12:43;4.50;99.90
45096;DHT22;30858;51.108;8.068;2023-02-11T08:15:09;4.50;99.90
45096;DHT22;30858;51.108;8.068;2023-02-11T08:17:35;4.50;99.90
45096;DHT22;30858;51.108;8.068;2023-02-11T08:20:01;4.50;99.90
45096;DHT22;30858;51.108;8.068;2023-02-11T08:22:26;4.60;99.90
45096;DHT22;30858;51.108;8.068;2023-02-11T08:24:52;4.60;99.90
45096;DHT22;30858;51.108;8.068;2023-02-11T08:27:17;4.50;99.90
45096;DHT22;30858;51.108;8.068;2023-02-11T08:29:44;4.50;99.90
45096;DHT22;30858;51.108;8.068;2023-02-11T08:32:09;4.50;99.90
45096;DHT22;30858;51.108;8.068;2023-02-11T08:34:35;4.50;99.90
45096;DHT22;30858;51.108;8.068;2023-02-11T08:37:02;4.50;99.90
45096;DHT22;30858;51.108;8.068;2023-02-11T08:39:27;4.50;99.90
45096;DHT22;30858;51.108;8.068;2023-02-11T08:41:54;4.50;99.90
45096;DHT22;30858;51.108;8.068;2023-02-11T08:44:22;4.60;99.90
45096;DHT22;30858;51.108;8.068;2023-02-11T08:46:48;4.50;99.90
45096;DHT22;30858;51.108;8.068;2023-02-11T08:49:14;4.50;99.90
45096;DHT22;30858;51.108;8.068;2023-02-11T08:51:40;4.60;99.90
45096;DHT22;30858;51.108;8.068;2023-02-11T08:54:06;4.50;99.90
45096;DHT22;30858;51.108;8.068;2023-02-11T08:56:34;4.50;99.90
45096;DHT22;30858;51.108;8.068;2023-02-11T08:59:00;4.60;99.90
45096;DHT22;30858;51.108;8.068;2023-02-11T09:01:29;4.60;99.90
45096;DHT22;30858;51.108;8.068;2023-02-11T09:03:56;4.60;99.90
45096;DHT22;30858;51.108;8.068;2023-02-11T09:06:22;4.60;99.90
45096;DHT22;30858;51.108;8.068;2023-02-11T09:08:51;4.60;99.90
45096;DHT22;30858;51.108;8.068;2023-02-11T09:11:18;4.60;99.90
45096;DHT22;30858;51.108;8.068;2023-02-11T09:13:45;4.70;99.90
45096;DHT22;30858;51.108;8.068;2023-02-11T09:16:22;4.70;99.90
45096;DHT22;30858;51.108;8.068;2023-02-11T09:18:48;4.70;99.90
45096;DHT22;30858;51.108;8.068;2023-02-11T09:21:15;4.70;99.90
45096;DHT22;30858;51.108;8.068;2023-02-11T09:23:41;4.80;99.90
45096;DHT22;30858;51.108;8.068;2023-02-11T09:26:13;4.80;99.90
45096;DHT22;30858;51.108;8.068;2023-02-11T09:28:39;4.70;99.90
45096;DHT22;30858;51.108;8.068;2023-02-11T09:31:13;4.70;99.90
45096;DHT22;30858;51.108;8.068;2023-02-11T09:33:41;4.70;99.90
45096;DHT22;30858;51.108;8.068;2023-02-11T09:36:13;4.70;99.90
45096;DHT22;30858;51.108;8.068;2023-02-11T09:38:38;4.70;99.90
45096;DHT22;30858;51.108;8.068;2023-02-11T09:41:04;4.70;99.90
45096;DHT22;30858;51.108;8.068;2023-02-11T09:43:40;4.80;99.90
45096;DHT22;30858;51.108;8.068;2023-02-11T09:46:15;4.70;99.90
45096;DHT22;30858;51.108;8.068;2023-02-11T09:48:43;4.80;99.90
45096;DHT22;30858;51.108;8.068;2023-02-11T09:51:31;4.90;99.90
45096;DHT22;30858;51.108;8.068;2023-02-11T09:54:04;4.90;99.90
45096;DHT22;30858;51.108;8.068;2023-02-11T09:56:32;4.80;99.90
45096;DHT22;30858;51.108;8.068;2023-02-11T09:58:57;4.90;99.90
45096;DHT22;30858;51.108;8.068;2023-02-11T10:05:01;5.00;99.90
45096;DHT22;30858;51.108;8.068;2023-02-11T10:10:26;5.00;99.90
45096;DHT22;30858;51.108;8.068;2023-02-11T10:13:26;5.00;99.90
45096;DHT22;30858;51.108;8.068;2023-02-11T10:16:28;5.00;99.90
45096;DHT22;30858;51.108;8.068;2023-02-11T10:19:18;5.10;99.90
45096;DHT22;30858;51.108;8.068;2023-02-11T10:24:28;5.00;99.90
45096;DHT22;30858;51.108;8.068;2023-02-11T10:26:55;5.10;99.90
45096;DHT22;30858;51.108;8.068;2023-02-11T10:29:37;5.10;99.90
45096;DHT22;30858;51.108;8.068;2023-02-11T10:32:28;5.20;99.90
45096;DHT22;30858;51.108;8.068;2023-02-11T10:34:59;5.10;99.90
45096;DHT22;30858;51.108;8.068;2023-02-11T10:37:26;5.20;99.90
45096;DHT22;30858;51.108;8.068;2023-02-11T10:39:51;5.20;99.90
45096;DHT22;30858;51.108;8.068;2023-02-11T10:42:17;5.30;99.90
45096;DHT22;30858;51.108;8.068;2023-02-11T10:45:03;5.30;99.90
45096;DHT22;30858;51.108;8.068;2023-02-11T10:47:35;5.40;99.90
45096;DHT22;30858;51.108;8.068;2023-02-11T10:50:18;5.20;99.90
45096;DHT22;30858;51.108;8.068;2023-02-11T10:52:43;5.20;99.90
45096;DHT22;30858;51.108;8.068;2023-02-11T10:57:48;5.30;99.90
45096;DHT22;30858;51.108;8.068;2023-02-11T11:02:43;5.30;99.90
45096;DHT22;30858;51.108;8.068;2023-02-11T11:05:19;5.30;99.90
45096;DHT22;30858;51.108;8.068;2023-02-11T11:07:54;5.30;99.90
45096;DHT22;30858;51.108;8.068;2023-02-11T11:13:33;5.30;99.90
45096;DHT22;30858;51.108;8.068;2023-02-11T11:18:31;5.20;99.90
45096;DHT22;30858;51.108;8.068;2023-02-11T11:21:05;5.30;99.90
45096;DHT22;30858;51.108;8.068;2023-02-11T11:23:34;5.40;99.90
45096;DHT22;30858;51.108;8.068;2023-02-11T11:26:10;5.40;99.90
45096;DHT22;30858;51.108;8.068;2023-02-11T11:28:58;5.40;99.90
45096;DHT22;30858;51.108;8.068;2023-02-11T11:31:34;5.50;99.90
45096;DHT22;30858;51.108;8.068;2023-02-11T11:34:03;5.60;99.90
45096;DHT22;30858;51.108;8.068;2023-02-11T11:36:36;5.50;99.90
45096;DHT22;30858;51.108;8.068;2023-02-11T11:41:49;5.50;99.90
45096;DHT22;30858;51.108;8.068;2023-02-11T11:44:30;5.50;99.90
45096;DHT22;30858;51.108;8.068;2023-02-11T11:54:42;5.60;99.90
45096;DHT22;30858;51.108;8.068;2023-02-11T11:57:15;5.50;99.90
45096;DHT22;30858;51.108;8.068;2023-02-11T11:59:42;5.50;99.90
45096;DHT22;30858;51.108;8.068;2023-02-11T12:02:34;5.50;99.90
45096;DHT22;30858;51.108;8.068;2023-02-11T12:05:17;5.50;99.90
45096;DHT22;30858;51.108;8.068;2023-02-11T12:08:06;5.50;99.90
45096;DHT22;30858;51.108;8.068;2023-02-11T12:15:54;5.40;99.90
45096;DHT22;30858;51.108;8.068;2023-02-11T12:26:51;5.60;99.90
45096;DHT22;30858;51.108;8.068;2023-02-11T12:32:23;5.50;99.90
45096;DHT22;30858;51.108;8.068;2023-02-11T12:38:12;5.70;99.90
45096;DHT22;30858;51.108;8.068;2023-02-11T12:40:47;5.60;99.90
45096;DHT22;30858;51.108;8.068;2023-02-11T12:43:30;5.60;99.90
45096;DHT22;30858;51.108;8.068;2023-02-11T12:49:08;5.60;99.90
45096;DHT22;30858;51.108;8.068;2023-02-11T12:51:50;5.70;99.90
45096;DHT22;30858;51.108;8.068;2023-02-11T12:54:27;5.70;99.90
45096;DHT22;30858;51.108;8.068;2023-02-11T12:57:05;5.70;99.90
45096;DHT22;30858;51.108;8.068;2023-02-11T13:00:01;5.60;99.90
45096;DHT22;30858;51.108;8.068;2023-02-11T13:08:01;5.80;99.90
45096;DHT22;30858;51.108;8.068;2023-02-11T13:10:32;5.80;99.90
45096;DHT22;30858;51.108;8.068;2023-02-11T13:13:01;5.80;99.90
45096;DHT22;30858;51.108;8.068;2023-02-11T13:16:04;5.90;99.90
45096;DHT22;30858;51.108;8.068;2023-02-11T13:18:50;5.90;99.90
45096;DHT22;30858;51.108;8.068;2023-02-11T13:21:26;5.90;99.90
45096;DHT22;30858;51.108;8.068;2023-02-11T13:29:36;5.90;99.90
45096;DHT22;30858;51.108;8.068;2023-02-11T13:32:11;5.90;99.90
45096;DHT22;30858;51.108;8.068;2023-02-11T13:37:19;6.00;99.90
45096;DHT22;30858;51.108;8.068;2023-02-11T13:40:02;6.10;99.90
45096;DHT22;30858;51.108;8.068;2023-02-11T13:42:30;6.10;99.90
45096;DHT22;30858;51.108;8.068;2023-02-11T13:44:57;6.10;99.90
45096;DHT22;30858;51.108;8.068;2023-02-11T13:47:33;6.00;99.90
45096;DHT22;30858;51.108;8.068;2023-02-11T13:50:02;6.00;99.90
45096;DHT22;30858;51.108;8.068;2023-02-11T13:52:35;5.90;99.90
45096;DHT22;30858;51.108;8.068;2023-02-11T13:55:19;6.00;99.90
45096;DHT22;30858;51.108;8.068;2023-02-11T14:22:04;6.00;99.90
45096;DHT22;30858;51.108;8.068;2023-02-11T14:27:06;6.10;99.90
45096;DHT22;30858;51.108;8.068;2023-02-11T14:30:01;6.00;99.90
45096;DHT22;30858;51.108;8.068;2023-02-11T14:36:04;6.10;99.90
45096;DHT22;30858;51.108;8.068;2023-02-11T14:39:20;6.10;99.90
45096;DHT22;30858;51.108;8.068;2023-02-11T14:41:32;6.00;99.90
45096;DHT22;30858;51.108;8.068;2023-02-11T14:44:03;6.00;99.90
45096;DHT22;30858;51.108;8.068;2023-02-11T14:46:31;6.00;99.90
45096;DHT22;30858;51.108;8.068;2023-02-11T14:49:01;6.10;99.90
45096;DHT22;30858;51.108;8.068;2023-02-11T14:51:33;6.10;99.90
45096;DHT22;30858;51.108;8.068;2023-02-11T14:54:14;6.00;99.90
45096;DHT22;30858;51.108;8.068;2023-02-11T14:56:41;6.10;99.90
45096;DHT22;30858;51.108;8.068;2023-02-11T14:59:33;6.00;99.90
45096;DHT22;30858;51.108;8.068;2023-02-11T15:01:58;6.00;99.90
45096;DHT22;30858;51.108;8.068;2023-02-11T15:04:27;6.00;99.90
45096;DHT22;30858;51.108;8.068;2023-02-11T15:06:53;6.00;99.90
45096;DHT22;30858;51.108;8.068;2023-02-11T15:09:39;5.90;99.90
45096;DHT22;30858;51.108;8.068;2023-02-11T15:12:10;5.90;99.90
45096;DHT22;30858;51.108;8.068;2023-02-11T15:14:45;6.00;99.90
45096;DHT22;30858;51.108;8.068;2023-02-11T15:17:14;6.00;99.90
45096;DHT22;30858;51.108;8.068;2023-02-11T15:19:44;6.00;99.90
45096;DHT22;30858;51.108;8.068;2023-02-11T15:22:18;6.00;99.90
45096;DHT22;30858;51.108;8.068;2023-02-11T15:25:00;6.00;99.90
45096;DHT22;30858;51.108;8.068;2023-02-11T15:27:40;6.00;99.90
45096;DHT22;30858;51.108;8.068;2023-02-11T15:30:30;6.00;99.90
45096;DHT22;30858;51.108;8.068;2023-02-11T15:33:00;6.00;99.90
45096;DHT22;30858;51.108;8.068;2023-02-11T15:35:33;6.00;99.90
45096;DHT22;30858;51.108;8.068;2023-02-11T15:37:59;6.10;99.90
45096;DHT22;30858;51.108;8.068;2023-02-11T15:40:30;6.00;99.90
45096;DHT22;30858;51.108;8.068;2023-02-11T15:43:01;6.00;99.90
45096;DHT22;30858;51.108;8.068;2023-02-11T15:45:28;6.00;99.90
45096;DHT22;30858;51.108;8.068;2023-02-11T15:48:11;6.00;99.90
45096;DHT22;30858;51.108;8.068;2023-02-11T15:50:38;6.00;99.90
45096;DHT22;30858;51.108;8.068;2023-02-11T15:55:44;6.00;99.90
45096;DHT22;30858;51.108;8.068;2023-02-11T15:58:10;5.90;99.90
45096;DHT22;30858;51.108;8.068;2023-02-11T16:00:48;6.00;99.90
45096;DHT22;30858;51.108;8.068;2023-02-11T16:03:23;6.00;99.90
45096;DHT22;30858;51.108;8.068;2023-02-11T16:05:50;5.90;99.90
45096;DHT22;30858;51.108;8.068;2023-02-11T16:08:27;6.00;99.90
45096;DHT22;30858;51.108;8.068;2023-02-11T16:11:17;6.00;99.90
45096;DHT22;30858;51.108;8.068;2023-02-11T16:13:46;5.90;99.90
45096;DHT22;30858;51.108;8.068;2023-02-11T16:16:21;6.00;99.90
45096;DHT22;30858;51.108;8.068;2023-02-11T16:18:50;6.00;99.90
45096;DHT22;30858;51.108;8.068;2023-02-11T16:21:17;6.00;99.90
45096;DHT22;30858;51.108;8.068;2023-02-11T16:23:52;6.00;99.90
45096;DHT22;30858;51.108;8.068;2023-02-11T16:29:12;6.00;99.90
45096;DHT22;30858;51.108;8.068;2023-02-11T16:31:44;6.00;99.90
45096;DHT22;30858;51.108;8.068;2023-02-11T16:34:15;6.00;99.90
45096;DHT22;30858;51.108;8.068;2023-02-11T16:36:41;5.90;99.90
45096;DHT22;30858;51.108;8.068;2023-02-11T16:39:07;6.00;99.90
45096;DHT22;30858;51.108;8.068;2023-02-11T16:41:33;5.90;99.90
45096;DHT22;30858;51.108;8.068;2023-02-11T16:43:59;5.90;99.90
45096;DHT22;30858;51.108;8.068;2023-02-11T16:46:24;5.90;99.90
45096;DHT22;30858;51.108;8.068;2023-02-11T16:48:52;6.00;99.90
45096;DHT22;30858;51.108;8.068;2023-02-11T16:51:18;6.00;99.90
45096;DHT22;30858;51.108;8.068;2023-02-11T16:53:43;6.00;99.90
45096;DHT22;30858;51.108;8.068;2023-02-11T16:56:13;6.00;99.90
45096;DHT22;30858;51.108;8.068;2023-02-11T16:58:40;6.00;99.90
45096;DHT22;30858;51.108;8.068;2023-02-11T17:01:06;6.00;99.90
45096;DHT22;30858;51.108;8.068;2023-02-11T17:03:31;5.90;99.90
45096;DHT22;30858;51.108;8.068;2023-02-11T17:06:02;5.90;99.90
45096;DHT22;30858;51.108;8.068;2023-02-11T17:08:30;5.90;99.90
45096;DHT22;30858;51.108;8.068;2023-02-11T17:10:56;5.90;99.90
45096;DHT22;30858;51.108;8.068;2023-02-11T17:13:22;5.80;99.90
45096;DHT22;30858;51.108;8.068;2023-02-11T17:15:48;5.70;99.90
45096;DHT22;30858;51.108;8.068;2023-02-11T17:18:13;5.80;99.90
45096;DHT22;30858;51.108;8.068;2023-02-11T17:20:39;5.60;99.90
45096;DHT22;30858;51.108;8.068;2023-02-11T17:23:05;5.60;99.90
45096;DHT22;30858;51.108;8.068;2023-02-11T17:25:30;5.60;99.90
45096;DHT22;30858;51.108;8.068;2023-02-11T17:27:56;5.60;99.90
45096;DHT22;30858;51.108;8.068;2023-02-11T17:30:22;5.60;99.90
45096;DHT22;30858;51.108;8.068;2023-02-11T17:32:48;5.60;99.90
45096;DHT22;30858;51.108;8.068;2023-02-11T17:35:14;5.60;99.90
45096;DHT22;30858;51.108;8.068;2023-02-11T17:37:40;5.70;99.90
45096;DHT22;30858;51.108;8.068;2023-02-11T17:40:06;5.70;99.90
45096;DHT22;30858;51.108;8.068;2023-02-11T17:42:32;5.70;99.90
45096;DHT22;30858;51.108;8.068;2023-02-11T17:44:58;5.60;99.90
45096;DHT22;30858;51.108;8.068;2023-02-11T17:47:24;5.60;99.90
45096;DHT22;30858;51.108;8.068;2023-02-11T17:49:49;5.70;99.90
45096;DHT22;30858;51.108;8.068;2023-02-11T17:52:15;5.70;99.90
45096;DHT22;30858;51.108;8.068;2023-02-11T17:54:42;5.70;99.90
45096;DHT22;30858;51.108;8.068;2023-02-11T17:57:09;5.70;99.90
45096;DHT22;30858;51.108;8.068;2023-02-11T17:59:37;5.60;99.90
45096;DHT22;30858;51.108;8.068;2023-02-11T18:02:04;5.60;99.90
45096;DHT22;30858;51.108;8.068;2023-02-11T18:04:30;5.60;99.90
45096;DHT22;30858;51.108;8.068;2023-02-11T18:06:55;5.60;99.90
45096;DHT22;30858;51.108;8.068;2023-02-11T18:09:22;5.60;99.90
45096;DHT22;30858;51.108;8.068;2023-02-11T18:11:48;5.60;99.90
45096;DHT22;30858;51.108;8.068;2023-02-11T18:14:19;5.50;99.90
45096;DHT22;30858;51.108;8.068;2023-02-11T18:16:44;5.60;99.90